Time,TemperatureF,DewpointF,PressureIn,WindDirection,WindDirectionDegrees,WindSpeedMPH,WindSpeedGustMPH,Humidity,HourlyPrecipIn,Conditions,Clouds,dailyrainin,SolarRadiationWatts/m^2,SoftwareType,DateUTC
2013-03-27 00:04:00,47.2,40.7,29.96,NE,54,0.0,0.0,78,0.00,,,0.00,0.0,WeatherDisplay:10.37,2013-03-27 07:04:00,
2013-03-27 00:09:00,47.1,40.6,29.96,NE,53,0.0,0.0,78,0.00,,,0.00,0.0,WeatherDisplay:10.37,2013-03-27 07:09:00,
2013-03-27 00:14:00,46.8,40.3,29.96,NE,54,0.0,0.0,78,0.00,,,0.00,0.0,WeatherDisplay:10.37,2013-03-27 07:14:00,
2013-03-27 00:19:00,46.8,40.6,29.95,NE,54,0.0,0.0,79,0.00,,,0.00,0.0,WeatherDisplay:10.37,2013-03-27 07:19:00,
2013-03-27 00:24:00,46.8,40.6,29.95,NE,53,0.0,0.0,79,0.00,,,0.00,0.0,WeatherDisplay:10.37,2013-03-27 07:24:00,
2013-03-27 00:29:00,46.8,40.6,29.95,NE,54,0.0,0.0,79,0.00,,,0.00,0.0,WeatherDisplay:10.37,2013-03-27 07:29:00,
2013-03-27 00:34:00,46.6,40.4,29.95,NE,54,0.0,0.0,79,0.00,,,0.00,0.0,WeatherDisplay:10.37,2013-03-27 07:34:00,
2013-03-27 00:39:00,46.6,40.4,29.95,NE,53,0.0,0.0,79,0.00,,,0.00,0.0,WeatherDisplay:10.37,2013-03-27 07:39:00,
2013-03-27 00:44:00,46.6,40.8,29.95,NE,54,0.0,0.0,80,0.00,,,0.00,0.0,WeatherDisplay:10.37,2013-03-27 07:44:00,
2013-03-27 00:49:00,46.7,40.9,29.95,NE,53,0.0,0.0,80,0.00,,,0.00,0.0,WeatherDisplay:10.37,2013-03-27 07:49:00,
2013-03-27 00:54:00,46.7,41.2,29.95,NE,54,0.0,0.0,81,0.00,,,0.00,0.0,WeatherDisplay:10.37,2013-03-27 07:54:00,
2013-03-27 00:59:00,46.8,41.3,29.95,NE,53,0.0,0.0,81,0.00,,,0.00,0.0,WeatherDisplay:10.37,2013-03-27 07:59:00,
2013-03-27 01:05:00,47.0,41.5,29.95,NE,54,0.0,0.0,81,0.00,,,0.00,0.0,WeatherDisplay:10.37,2013-03-27 08:05:00,
2013-03-27 01:10:00,47.1,41.2,29.95,NE,53,0.0,0.0,80,0.00,,,0.00,0.0,WeatherDisplay:10.37,2013-03-27 08:10:00,
2013-03-27 01:15:00,47.2,41.3,29.95,NE,53,0.0,0.0,80,0.00,,,0.00,0.0,WeatherDisplay:10.37,2013-03-27 08:15:00,
2013-03-27 01:20:00,47.2,41.3,29.95,NE,54,0.0,0.0,80,0.00,,,0.00,0.0,WeatherDisplay:10.37,2013-03-27 08:20:00,
2013-03-27 01:25:00,47.2,41.3,29.95,NE,54,0.0,0.0,80,0.00,,,0.00,0.0,WeatherDisplay:10.37,2013-03-27 08:25:00,
2013-03-27 01:30:00,47.3,41.1,29.95,NE,54,0.0,0.0,79,0.00,,,0.00,0.0,WeatherDisplay:10.37,2013-03-27 08:30:00,
2013-03-27 01:35:00,47.4,41.2,29.95,NE,54,0.0,0.0,79,0.00,,,0.00,0.0,WeatherDisplay:10.37,2013-03-27 08:35:00,
2013-03-27 01:40:00,47.5,41.6,29.95,NE,53,0.0,0.0,80,0.00,,,0.00,0.0,WeatherDisplay:10.37,2013-03-27 08:40:00,
2013-03-27 01:45:00,47.7,41.8,29.95,NE,53,0.0,0.0,80,0.00,,,0.00,0.0,WeatherDisplay:10.37,2013-03-27 08:45:00,
2013-03-27 01:50:00,47.7,41.8,29.95,NE,54,0.0,0.0,80,0.00,,,0.00,0.0,WeatherDisplay:10.37,2013-03-27 08:50:00,
2013-03-27 01:55:00,47.8,41.9,29.95,NE,54,0.0,0.0,80,0.00,,,0.00,0.0,WeatherDisplay:10.37,2013-03-27 08:55:00,
2013-03-27 02:00:00,47.8,41.9,29.94,NE,54,0.0,0.0,80,0.00,,,0.00,0.0,WeatherDisplay:10.37,2013-03-27 09:00:00,
2013-03-27 02:05:00,47.6,41.4,29.94,NE,54,0.0,0.0,79,0.00,,,0.00,0.0,WeatherDisplay:10.37,2013-03-27 09:05:00,
2013-03-27 02:10:00,47.6,41.7,29.94,NE,54,0.0,0.0,80,0.00,,,0.00,0.0,WeatherDisplay:10.37,2013-03-27 09:10:00,
2013-03-27 02:15:00,47.6,41.4,29.94,NE,54,0.0,0.0,79,0.00,,,0.00,0.0,WeatherDisplay:10.37,2013-03-27 09:15:00,
2013-03-27 02:20:00,47.6,41.4,29.94,NE,53,0.0,0.0,79,0.00,,,0.00,0.0,WeatherDisplay:10.37,2013-03-27 09:20:00,
2013-03-27 02:25:00,47.4,41.5,29.94,NE,54,0.0,0.0,80,0.00,,,0.00,0.0,WeatherDisplay:10.37,2013-03-27 09:25:00,
2013-03-27 02:30:00,47.3,41.4,29.94,NE,54,0.0,0.0,80,0.00,,,0.00,0.0,WeatherDisplay:10.37,2013-03-27 09:30:00,
2013-03-27 02:35:00,47.2,41.3,29.94,NE,54,0.0,0.0,80,0.00,,,0.00,0.0,WeatherDisplay:10.37,2013-03-27 09:35:00,
2013-03-27 02:40:00,47.0,41.5,29.94,NE,53,0.0,0.0,81,0.00,,,0.00,0.0,WeatherDisplay:10.37,2013-03-27 09:40:00,
2013-03-27 02:45:00,47.0,41.5,29.94,NE,54,0.0,0.0,81,0.00,,,0.00,0.0,WeatherDisplay:10.37,2013-03-27 09:45:00,
2013-03-27 02:50:00,46.8,41.6,29.93,NE,54,0.0,0.0,82,0.00,,,0.00,0.0,WeatherDisplay:10.37,2013-03-27 09:50:00,
2013-03-27 02:55:00,46.7,41.5,29.93,NE,54,0.0,0.0,82,0.00,,,0.00,0.0,WeatherDisplay:10.37,2013-03-27 09:55:00,
2013-03-27 03:00:00,46.7,41.5,29.93,NE,54,0.0,0.0,82,0.00,,,0.00,0.0,WeatherDisplay:10.37,2013-03-27 10:00:00,
2013-03-27 03:05:00,46.7,41.5,29.93,NE,54,0.0,0.0,82,0.00,,,0.00,0.0,WeatherDisplay:10.37,2013-03-27 10:05:00,
2013-03-27 03:10:00,46.5,41.3,29.93,NE,54,0.0,0.0,82,0.00,,,0.00,0.0,WeatherDisplay:10.37,2013-03-27 10:10:00,
2013-03-27 03:15:00,46.3,41.1,29.93,NE,54,0.0,0.0,82,0.00,,,0.00,0.0,WeatherDisplay:10.37,2013-03-27 10:15:00,
2013-03-27 03:20:00,46.2,41.0,29.93,NE,54,0.0,0.0,82,0.00,,,0.00,0.0,WeatherDisplay:10.37,2013-03-27 10:20:00,
2013-03-27 03:25:00,46.1,40.9,29.93,NE,54,0.0,0.0,82,0.00,,,0.00,0.0,WeatherDisplay:10.37,2013-03-27 10:25:00,
2013-03-27 03:30:00,46.2,41.3,29.93,NE,53,0.0,0.0,83,0.00,,,0.00,0.0,WeatherDisplay:10.37,2013-03-27 10:30:00,
2013-03-27 03:35:00,46.3,41.4,29.93,NE,54,0.0,0.0,83,0.00,,,0.00,0.0,WeatherDisplay:10.37,2013-03-27 10:35:00,
2013-03-27 03:40:00,46.3,41.4,29.93,NE,53,0.0,0.0,83,0.00,,,0.00,0.0,WeatherDisplay:10.37,2013-03-27 10:40:00,
2013-03-27 03:45:00,46.4,41.5,29.93,NE,53,0.0,0.0,83,0.00,,,0.00,0.0,WeatherDisplay:10.37,2013-03-27 10:45:00,
2013-03-27 03:50:00,46.5,41.6,29.93,NE,53,0.0,0.0,83,0.00,,,0.00,0.0,WeatherDisplay:10.37,2013-03-27 10:50:00,
2013-03-27 03:55:00,46.7,41.8,29.93,NE,54,0.0,0.0,83,0.00,,,0.00,0.0,WeatherDisplay:10.37,2013-03-27 10:55:00,
2013-03-27 04:00:00,46.7,41.8,29.93,NE,54,0.0,0.0,83,0.00,,,0.00,0.0,WeatherDisplay:10.37,2013-03-27 11:00:00,
2013-03-27 04:05:00,46.8,41.9,29.93,NE,54,0.0,0.0,83,0.00,,,0.00,0.0,WeatherDisplay:10.37,2013-03-27 11:05:00,
2013-03-27 04:10:00,46.9,42.0,29.93,NE,54,0.0,0.0,83,0.00,,,0.00,0.0,WeatherDisplay:10.37,2013-03-27 11:10:00,
2013-03-27 04:15:00,47.0,41.8,29.93,NE,53,0.0,0.0,82,0.00,,,0.00,0.0,WeatherDisplay:10.37,2013-03-27 11:15:00,
2013-03-27 04:20:00,47.2,42.0,29.93,NE,54,0.0,0.0,82,0.00,,,0.00,0.0,WeatherDisplay:10.37,2013-03-27 11:20:00,
2013-03-27 04:25:00,47.3,42.1,29.93,NE,54,0.0,0.0,82,0.00,,,0.00,0.0,WeatherDisplay:10.37,2013-03-27 11:25:00,
2013-03-27 04:30:00,47.5,42.3,29.93,NE,54,0.0,0.0,82,0.00,,,0.00,0.0,WeatherDisplay:10.37,2013-03-27 11:30:00,
2013-03-27 04:35:00,47.5,42.0,29.93,NE,54,0.0,0.0,81,0.00,,,0.00,0.0,WeatherDisplay:10.37,2013-03-27 11:35:00,
2013-03-27 04:40:00,47.5,42.0,29.93,NE,53,0.0,0.0,81,0.00,,,0.00,0.0,WeatherDisplay:10.37,2013-03-27 11:40:00,
2013-03-27 04:45:00,47.4,41.9,29.93,NE,54,0.0,0.0,81,0.00,,,0.00,0.0,WeatherDisplay:10.37,2013-03-27 11:45:00,
2013-03-27 04:50:00,47.3,41.8,29.93,NE,54,0.0,0.0,81,0.00,,,0.00,0.0,WeatherDisplay:10.37,2013-03-27 11:50:00,
2013-03-27 04:55:00,47.2,41.7,29.93,NE,54,0.0,0.0,81,0.00,,,0.00,0.0,WeatherDisplay:10.37,2013-03-27 11:55:00,
2013-03-27 05:00:00,47.0,41.8,29.93,NE,54,0.0,0.0,82,0.00,,,0.00,0.0,WeatherDisplay:10.37,2013-03-27 12:00:00,
2013-03-27 05:05:00,47.0,41.8,29.93,NE,53,0.0,0.0,82,0.00,,,0.00,0.0,WeatherDisplay:10.37,2013-03-27 12:05:00,
2013-03-27 05:10:00,46.8,41.6,29.93,NE,54,0.0,0.0,82,0.00,,,0.00,0.0,WeatherDisplay:10.37,2013-03-27 12:10:00,
2013-03-27 05:15:00,46.6,41.4,29.93,NE,53,0.0,0.0,82,0.00,,,0.00,0.0,WeatherDisplay:10.37,2013-03-27 12:15:00,
2013-03-27 05:20:00,46.4,41.2,29.93,NE,54,0.0,0.0,82,0.00,,,0.00,0.0,WeatherDisplay:10.37,2013-03-27 12:20:00,
2013-03-27 05:25:00,46.4,41.5,29.93,NE,54,0.0,0.0,83,0.00,,,0.00,0.0,WeatherDisplay:10.37,2013-03-27 12:25:00,
2013-03-27 05:30:00,46.5,41.6,29.93,NE,53,0.0,0.0,83,0.00,,,0.00,0.0,WeatherDisplay:10.37,2013-03-27 12:30:00,
2013-03-27 05:35:00,46.6,41.7,29.93,NE,54,0.0,0.0,83,0.00,,,0.00,0.0,WeatherDisplay:10.37,2013-03-27 12:35:00,
2013-03-27 05:40:00,46.7,41.8,29.93,NE,54,0.0,0.0,83,0.00,,,0.00,0.0,WeatherDisplay:10.37,2013-03-27 12:40:00,
2013-03-27 05:45:00,46.9,42.0,29.93,NE,53,0.0,0.0,83,0.00,,,0.00,0.0,WeatherDisplay:10.37,2013-03-27 12:45:00,
2013-03-27 05:50:00,47.0,41.8,29.93,NE,54,0.0,0.0,82,0.00,,,0.00,0.0,WeatherDisplay:10.37,2013-03-27 12:50:00,
2013-03-27 05:55:00,47.1,41.9,29.93,NE,53,0.0,0.0,82,0.00,,,0.00,0.0,WeatherDisplay:10.37,2013-03-27 12:55:00,
2013-03-27 06:00:00,47.1,41.9,29.93,NE,53,0.0,0.0,82,0.00,,,0.00,0.0,WeatherDisplay:10.37,2013-03-27 13:00:00,
2013-03-27 06:05:00,47.2,42.0,29.93,NE,53,0.0,0.0,82,0.00,,,0.00,0.0,WeatherDisplay:10.37,2013-03-27 13:05:00,
2013-03-27 06:10:00,47.2,42.3,29.93,NE,53,0.0,0.0,83,0.00,,,0.00,0.0,WeatherDisplay:10.37,2013-03-27 13:10:00,
2013-03-27 06:15:00,47.2,42.0,29.93,NE,54,0.0,0.0,82,0.00,,,0.00,0.0,WeatherDisplay:10.37,2013-03-27 13:15:00,
2013-03-27 06:20:00,47.4,42.2,29.93,NE,54,0.0,0.0,82,0.00,,,0.00,0.0,WeatherDisplay:10.37,2013-03-27 13:20:00,
2013-03-27 06:25:00,47.6,42.4,29.93,NE,54,0.0,0.0,82,0.00,,,0.00,0.0,WeatherDisplay:10.37,2013-03-27 13:25:00,
2013-03-27 06:30:00,47.8,42.6,29.93,NE,54,0.0,0.0,82,0.00,,,0.00,0.0,WeatherDisplay:10.37,2013-03-27 13:30:00,
2013-03-27 06:35:00,47.9,42.7,29.93,NE,53,0.0,0.0,82,0.00,,,0.00,0.0,WeatherDisplay:10.37,2013-03-27 13:35:00,
2013-03-27 06:40:00,47.9,42.7,29.93,NE,54,0.0,0.0,82,0.00,,,0.00,0.0,WeatherDisplay:10.37,2013-03-27 13:40:00,
2013-03-27 06:45:00,47.9,42.7,29.94,NE,53,0.0,0.0,82,0.00,,,0.00,0.0,WeatherDisplay:10.37,2013-03-27 13:45:00,
2013-03-27 06:50:00,48.0,42.8,29.94,NE,53,0.0,0.0,82,0.00,,,0.00,0.0,WeatherDisplay:10.37,2013-03-27 13:50:00,
2013-03-27 06:55:00,48.1,42.9,29.94,NE,54,0.0,0.0,82,0.00,,,0.00,0.0,WeatherDisplay:10.37,2013-03-27 13:55:00,
2013-03-27 07:00:00,48.2,43.0,29.94,NE,53,0.0,0.0,82,0.00,,,0.00,0.0,WeatherDisplay:10.37,2013-03-27 14:00:00,
2013-03-27 07:05:00,48.3,43.1,29.94,NE,54,0.0,0.0,82,0.00,,,0.00,0.0,WeatherDisplay:10.37,2013-03-27 14:05:00,
2013-03-27 07:10:00,48.3,43.1,29.94,NE,54,0.0,0.0,82,0.00,CLR,,0.00,5.0,WeatherDisplay:10.37,2013-03-27 14:10:00,
2013-03-27 07:15:00,48.3,43.1,29.94,NE,54,0.0,0.0,82,0.00,FEW,,0.00,12.0,WeatherDisplay:10.37,2013-03-27 14:15:00,
2013-03-27 07:20:00,48.3,43.1,29.94,NE,53,0.0,0.0,82,0.00,BKN,,0.00,12.0,WeatherDisplay:10.37,2013-03-27 14:20:00,
2013-03-27 07:25:00,48.3,43.1,29.94,NE,53,0.0,0.0,82,0.00,BKN,,0.00,16.0,WeatherDisplay:10.37,2013-03-27 14:25:00,
2013-03-27 07:30:00,48.4,43.2,29.94,NE,53,0.0,0.0,82,0.00,SCT,,0.00,25.0,WeatherDisplay:10.37,2013-03-27 14:30:00,
2013-03-27 07:35:00,48.6,43.4,29.94,NE,53,0.0,0.0,82,0.00,SCT,,0.00,33.0,WeatherDisplay:10.37,2013-03-27 14:35:00,
2013-03-27 07:40:00,48.8,43.2,29.94,NE,54,0.0,0.0,81,0.00,SCT,,0.00,42.0,WeatherDisplay:10.37,2013-03-27 14:40:00,
2013-03-27 07:45:00,48.9,43.3,29.94,NE,54,0.0,0.0,81,0.00,SCT,,0.00,46.0,WeatherDisplay:10.37,2013-03-27 14:45:00,
2013-03-27 07:50:00,48.9,43.3,29.94,NE,53,0.0,0.0,81,0.00,BKN,,0.00,53.0,WeatherDisplay:10.37,2013-03-27 14:50:00,
2013-03-27 07:55:00,49.0,43.7,29.95,NE,54,0.0,0.0,82,0.00,FEW,,0.00,90.0,WeatherDisplay:10.37,2013-03-27 14:55:00,
2013-03-27 08:00:00,49.2,43.9,29.95,NE,53,0.0,0.0,82,0.00,FEW,,0.00,111.0,WeatherDisplay:10.37,2013-03-27 15:00:00,
2013-03-27 08:05:00,49.5,44.2,29.95,NE,53,0.0,0.0,82,0.00,SCT,,0.00,79.0,WeatherDisplay:10.37,2013-03-27 15:05:00,
2013-03-27 08:10:00,50.1,44.8,29.95,NE,54,0.0,0.0,82,0.00,BKN,,0.00,63.0,WeatherDisplay:10.37,2013-03-27 15:10:00,
2013-03-27 08:15:00,50.3,44.7,29.95,NE,53,0.0,0.0,81,0.00,BKN,,0.00,69.0,WeatherDisplay:10.37,2013-03-27 15:15:00,
2013-03-27 08:20:00,50.4,45.1,29.95,NE,54,0.0,0.0,82,0.00,BKN,,0.00,65.0,WeatherDisplay:10.37,2013-03-27 15:20:00,
2013-03-27 08:25:00,50.8,45.5,29.95,NE,53,0.0,0.0,82,0.00,BKN,,0.00,69.0,WeatherDisplay:10.37,2013-03-27 15:25:00,
2013-03-27 08:30:00,51.2,45.6,29.95,NE,53,0.0,0.0,81,0.00,BKN,,0.00,76.0,WeatherDisplay:10.37,2013-03-27 15:30:00,
2013-03-27 08:35:00,51.4,45.8,29.95,NE,54,0.0,0.0,81,0.00,BKN,,0.00,79.0,WeatherDisplay:10.37,2013-03-27 15:35:00,
2013-03-27 08:40:00,51.5,45.9,29.95,NE,53,0.0,0.0,81,0.00,BKN,,0.00,74.0,WeatherDisplay:10.37,2013-03-27 15:40:00,
2013-03-27 08:45:00,51.7,46.1,29.95,NE,54,0.0,0.0,81,0.00,BKN,,0.00,74.0,WeatherDisplay:10.37,2013-03-27 15:45:00,
2013-03-27 08:50:00,52.1,46.4,29.95,South,179,0.0,0.0,81,0.00,BKN,,0.00,93.0,WeatherDisplay:10.37,2013-03-27 15:50:00,
2013-03-27 08:55:00,52.4,46.7,29.95,South,184,0.0,0.0,81,0.00,BKN,,0.00,97.0,WeatherDisplay:10.37,2013-03-27 15:55:00,
2013-03-27 09:00:00,52.4,46.7,29.95,South,180,0.0,0.0,81,0.00,BKN,,0.00,132.0,WeatherDisplay:10.37,2013-03-27 16:00:00,
2013-03-27 09:05:00,52.4,46.7,29.95,South,184,0.0,0.0,81,0.00,BKN,,0.00,130.0,WeatherDisplay:10.37,2013-03-27 16:05:00,
2013-03-27 09:10:00,52.5,46.5,29.95,South,186,0.0,0.0,80,0.00,BKN,,0.00,107.0,WeatherDisplay:10.37,2013-03-27 16:10:00,
2013-03-27 09:15:00,52.5,46.5,29.95,South,183,0.0,0.0,80,0.00,BKN,,0.00,98.0,WeatherDisplay:10.37,2013-03-27 16:15:00,
2013-03-27 09:20:00,52.6,46.6,29.95,South,182,0.0,0.0,80,0.00,BKN,,0.00,123.0,WeatherDisplay:10.37,2013-03-27 16:20:00,
2013-03-27 09:25:00,52.8,46.8,29.95,South,180,0.0,0.0,80,0.00,BKN,,0.00,121.0,WeatherDisplay:10.37,2013-03-27 16:25:00,
2013-03-27 09:30:00,53.0,47.0,29.96,South,180,0.0,0.0,80,0.00,BKN,,0.00,139.0,WeatherDisplay:10.37,2013-03-27 16:30:00,
2013-03-27 09:35:00,53.1,47.1,29.96,South,173,0.0,0.0,80,0.00,BKN,,0.00,156.0,WeatherDisplay:10.37,2013-03-27 16:35:00,
2013-03-27 09:40:00,53.4,47.0,29.95,South,173,0.0,0.0,79,0.00,SCT,,0.00,267.0,WeatherDisplay:10.37,2013-03-27 16:40:00,
2013-03-27 09:45:00,54.1,47.7,29.95,South,174,0.0,0.0,79,0.00,SCT,,0.00,236.0,WeatherDisplay:10.37,2013-03-27 16:45:00,
2013-03-27 09:50:00,54.3,47.6,29.96,SSE,163,0.0,0.0,78,0.00,BKN,,0.00,202.0,WeatherDisplay:10.37,2013-03-27 16:50:00,
2013-03-27 09:55:00,54.3,47.6,29.96,SSE,157,0.0,0.0,78,0.00,BKN,,0.00,221.0,WeatherDisplay:10.37,2013-03-27 16:55:00,
2013-03-27 10:00:00,54.4,47.7,29.96,SE,126,0.0,0.0,78,0.00,BKN,,0.00,253.0,WeatherDisplay:10.37,2013-03-27 17:00:00,
2013-03-27 10:05:00,54.7,48.0,29.95,SE,136,0.0,0.0,78,0.00,SCT,,0.00,304.0,WeatherDisplay:10.37,2013-03-27 17:05:00,
2013-03-27 10:10:00,55.0,48.6,29.96,SE,146,0.0,0.0,79,0.00,SCT,,0.00,346.0,WeatherDisplay:10.37,2013-03-27 17:10:00,
2013-03-27 10:15:00,55.3,48.6,29.96,SE,146,0.0,0.0,78,0.00,SCT,,0.00,376.0,WeatherDisplay:10.37,2013-03-27 17:15:00,
2013-03-27 10:20:00,55.8,49.0,29.96,SE,142,0.0,0.0,78,0.00,SCT,,0.00,287.0,WeatherDisplay:10.37,2013-03-27 17:20:00,
2013-03-27 10:25:00,55.9,48.1,29.96,SSE,148,0.0,0.0,75,0.00,BKN,,0.00,179.0,WeatherDisplay:10.37,2013-03-27 17:25:00,
2013-03-27 10:30:00,55.5,47.7,29.96,SE,128,0.0,0.0,75,0.00,BKN,,0.00,206.0,WeatherDisplay:10.37,2013-03-27 17:30:00,
2013-03-27 10:35:00,55.6,47.8,29.96,South,184,0.0,0.0,75,0.00,BKN,,0.00,255.0,WeatherDisplay:10.37,2013-03-27 17:35:00,
2013-03-27 10:40:00,55.4,49.0,29.96,South,173,0.0,0.0,79,0.00,BKN,,0.00,207.0,WeatherDisplay:10.37,2013-03-27 17:40:00,
2013-03-27 10:45:00,55.2,49.5,29.96,South,173,0.0,0.0,81,0.00,BKN,,0.00,197.0,WeatherDisplay:10.37,2013-03-27 17:45:00,
2013-03-27 10:50:00,54.4,49.0,29.96,South,175,0.0,0.0,82,0.00,BKN,,0.00,200.0,WeatherDisplay:10.37,2013-03-27 17:50:00,
2013-03-27 10:55:00,54.2,49.1,29.97,South,174,0.0,0.0,83,0.00,BKN,,0.00,216.0,WeatherDisplay:10.37,2013-03-27 17:55:00,
2013-03-27 11:00:00,54.3,49.2,29.97,South,174,0.0,0.0,83,0.00,BKN,,0.00,193.0,WeatherDisplay:10.37,2013-03-27 18:00:00,
2013-03-27 11:05:00,54.6,49.9,29.97,South,174,0.0,0.0,84,0.00,BKN,,0.00,223.0,WeatherDisplay:10.37,2013-03-27 18:05:00,
2013-03-27 11:10:00,54.9,49.8,29.97,South,174,0.0,0.0,83,0.00,BKN,,0.00,169.0,WeatherDisplay:10.37,2013-03-27 18:10:00,
2013-03-27 11:15:00,54.6,49.5,29.97,South,182,0.0,0.0,83,0.00,BKN,,0.00,156.0,WeatherDisplay:10.37,2013-03-27 18:15:00,
2013-03-27 11:20:00,54.1,49.1,29.97,South,191,4.4,5.8,83,0.00,BKN,,0.00,253.0,WeatherDisplay:10.37,2013-03-27 18:20:00,
2013-03-27 11:25:00,54.2,49.1,29.97,SSW,194,3.7,6.9,83,0.00,BKN,,0.00,241.0,WeatherDisplay:10.37,2013-03-27 18:25:00,
2013-03-27 11:30:00,54.0,49.0,29.97,SSW,196,7.1,8.1,83,0.00,BKN,,0.00,262.0,WeatherDisplay:10.37,2013-03-27 18:30:00,
2013-03-27 11:35:00,54.3,49.2,29.97,SSW,210,4.9,8.1,83,0.00,BKN,,0.00,299.0,WeatherDisplay:10.37,2013-03-27 18:35:00,
2013-03-27 11:40:00,54.5,49.4,29.97,South,187,6.0,8.1,83,0.00,BKN,,0.00,374.0,WeatherDisplay:10.37,2013-03-27 18:40:00,
2013-03-27 11:45:00,54.5,49.1,29.97,South,179,3.3,5.8,82,0.00,BKN,,0.00,330.0,WeatherDisplay:10.37,2013-03-27 18:45:00,
2013-03-27 11:50:00,54.7,49.3,29.97,SSW,192,7.6,11.5,82,0.00,BKN,,0.00,320.0,WeatherDisplay:10.37,2013-03-27 18:50:00,
2013-03-27 11:55:00,54.8,49.1,29.97,South,171,4.2,10.4,81,0.00,BKN,,0.00,359.0,WeatherDisplay:10.37,2013-03-27 18:55:00,
2013-03-27 12:00:00,55.0,49.6,29.97,SSW,195,7.6,11.5,82,0.00,SCT,,0.00,420.0,WeatherDisplay:10.37,2013-03-27 19:00:00,
2013-03-27 12:05:00,54.9,49.2,29.97,SSW,198,6.2,8.1,81,0.00,BKN,,0.00,306.0,WeatherDisplay:10.37,2013-03-27 19:05:00,
2013-03-27 12:10:00,55.1,49.4,29.97,SSE,168,3.5,5.8,81,0.00,BKN,,0.00,241.0,WeatherDisplay:10.37,2013-03-27 19:10:00,
2013-03-27 12:15:00,55.0,49.3,29.97,SSW,201,3.0,4.0,81,0.00,SCT,,0.00,575.0,WeatherDisplay:10.37,2013-03-27 19:15:00,
2013-03-27 12:20:00,55.1,49.4,29.97,SSE,155,0.5,1.2,81,0.00,BKN,,0.00,299.0,WeatherDisplay:10.37,2013-03-27 19:20:00,
2013-03-27 12:25:00,55.4,49.3,29.97,ESE,115,2.5,6.9,80,0.00,BKN,,0.00,251.0,WeatherDisplay:10.37,2013-03-27 19:25:00,
2013-03-27 12:30:00,55.4,49.3,29.97,SSW,200,2.5,5.8,80,0.00,BKN,,0.00,392.0,WeatherDisplay:10.37,2013-03-27 19:30:00,
2013-03-27 12:35:00,55.5,49.1,29.97,SSW,196,4.4,6.9,79,0.00,BKN,,0.00,357.0,WeatherDisplay:10.37,2013-03-27 19:35:00,
2013-03-27 12:40:00,55.4,49.3,29.97,SSW,205,1.7,3.5,80,0.00,BKN,,0.00,232.0,WeatherDisplay:10.37,2013-03-27 19:40:00,
2013-03-27 12:45:00,55.6,49.2,29.97,SSE,152,2.1,6.9,79,0.00,BKN,,0.00,250.0,WeatherDisplay:10.37,2013-03-27 19:45:00,
2013-03-27 12:50:00,55.4,49.3,29.97,SW,215,2.1,3.5,80,0.00,BKN,,0.00,250.0,WeatherDisplay:10.37,2013-03-27 19:50:00,
2013-03-27 12:55:00,55.3,49.2,29.97,SSW,194,1.5,2.3,80,0.00,BKN,,0.00,237.0,WeatherDisplay:10.37,2013-03-27 19:55:00,
2013-03-27 13:00:00,55.1,49.0,29.97,South,188,4.8,6.9,80,0.00,BKN,,0.00,309.0,WeatherDisplay:10.37,2013-03-27 20:00:00,
2013-03-27 13:05:00,55.7,50.3,29.97,SE,132,2.1,3.5,82,0.00,SCT,,0.00,492.0,WeatherDisplay:10.37,2013-03-27 20:05:00,
2013-03-27 13:10:00,56.2,50.4,29.97,South,170,1.7,3.5,81,0.00,BKN,,0.00,411.0,WeatherDisplay:10.37,2013-03-27 20:10:00,
2013-03-27 13:15:00,56.3,50.2,29.97,South,171,2.2,2.3,80,0.00,BKN,,0.00,417.0,WeatherDisplay:10.37,2013-03-27 20:15:00,
2013-03-27 13:20:00,56.0,49.9,29.97,SSW,202,0.6,3.5,80,0.00,SCT,,0.00,490.0,WeatherDisplay:10.37,2013-03-27 20:20:00,
2013-03-27 13:25:00,56.0,49.9,29.97,South,188,3.7,5.8,80,0.00,SCT,,0.00,397.0,WeatherDisplay:10.37,2013-03-27 20:25:00,
2013-03-27 13:30:00,55.8,49.7,29.97,South,191,3.0,4.6,80,0.00,BKN,,0.00,257.0,WeatherDisplay:10.37,2013-03-27 20:30:00,
2013-03-27 13:35:00,56.0,49.9,29.97,South,188,4.3,6.9,80,0.00,BKN,,0.00,318.0,WeatherDisplay:10.37,2013-03-27 20:35:00,
2013-03-27 13:40:00,56.6,50.2,29.97,South,173,3.0,3.5,79,0.00,BKN,,0.00,327.0,WeatherDisplay:10.37,2013-03-27 20:40:00,
2013-03-27 13:45:00,56.0,49.9,29.97,South,182,1.0,3.5,80,0.00,BKN,,0.00,297.0,WeatherDisplay:10.37,2013-03-27 20:45:00,
2013-03-27 13:50:00,56.0,49.9,29.97,South,188,4.3,6.0,80,0.00,BKN,,0.00,339.0,WeatherDisplay:10.37,2013-03-27 20:50:00,
2013-03-27 13:55:00,56.0,49.9,29.97,South,171,4.0,4.0,80,0.00,BKN,,0.00,267.0,WeatherDisplay:10.37,2013-03-27 20:55:00,
2013-03-27 14:00:00,55.7,49.6,29.96,SSE,161,7.1,11.5,80,0.00,BKN,,0.00,283.0,WeatherDisplay:10.37,2013-03-27 21:00:00,
2013-03-27 14:05:00,55.3,49.6,29.97,SE,126,2.6,4.0,81,0.00,BKN,,0.00,216.0,WeatherDisplay:10.37,2013-03-27 21:05:00,
2013-03-27 14:10:00,55.4,50.0,29.97,SSE,160,3.1,4.6,82,0.00,BKN,,0.00,336.0,WeatherDisplay:10.37,2013-03-27 21:10:00,
2013-03-27 14:15:00,54.9,49.5,29.96,South,175,4.3,6.9,82,0.00,BKN,,0.00,316.0,WeatherDisplay:10.37,2013-03-27 21:15:00,
2013-03-27 14:20:00,54.8,49.7,29.96,South,178,6.1,10.4,83,0.00,BKN,,0.00,239.0,WeatherDisplay:10.37,2013-03-27 21:20:00,
2013-03-27 14:25:00,54.4,49.3,29.97,South,175,6.6,9.2,83,0.00,BKN,,0.00,315.0,WeatherDisplay:10.37,2013-03-27 21:25:00,
2013-03-27 14:30:00,54.4,49.7,29.96,South,183,6.4,9.2,84,0.00,BKN,,0.00,274.0,WeatherDisplay:10.37,2013-03-27 21:30:00,
2013-03-27 14:35:00,54.6,50.2,29.96,South,188,5.9,8.1,85,0.00,BKN,,0.00,359.0,WeatherDisplay:10.37,2013-03-27 21:35:00,
2013-03-27 14:40:00,54.4,49.7,29.96,South,187,3.3,3.5,84,0.00,BKN,,0.00,373.0,WeatherDisplay:10.37,2013-03-27 21:40:00,
2013-03-27 14:45:00,54.4,50.0,29.96,South,178,1.7,5.8,85,0.00,BKN,,0.00,415.0,WeatherDisplay:10.37,2013-03-27 21:45:00,
2013-03-27 14:50:00,54.7,50.3,29.96,South,186,1.9,4.6,85,0.00,SCT,,0.00,462.0,WeatherDisplay:10.37,2013-03-27 21:50:00,
2013-03-27 14:55:00,55.2,50.4,29.96,South,190,4.5,5.8,84,0.00,CLR,,0.00,694.0,WeatherDisplay:10.37,2013-03-27 21:55:00,
2013-03-27 15:00:00,54.9,49.8,29.96,SSW,200,1.7,8.1,83,0.00,CLR,,0.00,694.0,WeatherDisplay:10.37,2013-03-27 22:00:00,
2013-03-27 15:05:00,55.6,50.2,29.96,South,180,4.1,5.8,82,0.00,BKN,,0.00,323.0,WeatherDisplay:10.37,2013-03-27 22:05:00,
2013-03-27 15:10:00,55.8,50.1,29.96,SSW,193,5.0,8.1,81,0.00,BKN,,0.00,334.0,WeatherDisplay:10.37,2013-03-27 22:10:00,
2013-03-27 15:15:00,55.8,50.1,29.96,South,182,3.3,4.6,81,0.00,BKN,,0.00,313.0,WeatherDisplay:10.37,2013-03-27 22:15:00,
2013-03-27 15:20:00,55.8,49.7,29.96,South,183,5.3,8.1,80,0.00,BKN,,0.00,243.0,WeatherDisplay:10.37,2013-03-27 22:20:00,
2013-03-27 15:25:00,55.4,49.3,29.96,SSW,203,5.0,7.0,80,0.00,BKN,,0.00,237.0,WeatherDisplay:10.37,2013-03-27 22:25:00,
2013-03-27 15:30:00,55.5,49.8,29.96,SSW,194,4.9,4.9,81,0.00,BKN,,0.00,209.0,WeatherDisplay:10.37,2013-03-27 22:30:00,
2013-03-27 15:35:00,55.4,49.3,29.96,South,182,2.0,3.5,80,0.00,BKN,,0.00,207.0,WeatherDisplay:10.37,2013-03-27 22:35:00,
2013-03-27 15:40:00,55.2,49.5,29.96,South,190,0.8,3.5,81,0.00,BKN,,0.00,183.0,WeatherDisplay:10.37,2013-03-27 22:40:00,
2013-03-27 15:45:00,55.4,49.7,29.96,South,178,2.6,4.0,81,0.00,BKN,,0.00,179.0,WeatherDisplay:10.37,2013-03-27 22:45:00,
2013-03-27 15:50:00,55.3,49.2,29.96,South,184,1.7,2.3,80,0.00,BKN,,0.00,221.0,WeatherDisplay:10.37,2013-03-27 22:50:00,
2013-03-27 15:55:00,55.3,49.2,29.96,SSE,157,0.7,2.3,80,0.00,BKN,,0.00,171.0,WeatherDisplay:10.37,2013-03-27 22:55:00,
2013-03-27 16:00:00,55.3,49.2,29.96,South,171,2.5,4.6,80,0.00,BKN,,0.00,148.0,WeatherDisplay:10.37,2013-03-27 23:00:00,
2013-03-27 16:05:00,55.4,49.3,29.96,West,275,0.3,1.2,80,0.00,BKN,,0.00,167.0,WeatherDisplay:10.37,2013-03-27 23:05:00,
2013-03-27 16:10:00,55.6,49.5,29.96,SE,136,2.7,4.6,80,0.00,BKN,,0.00,142.0,WeatherDisplay:10.37,2013-03-27 23:10:00,
2013-03-27 16:15:00,55.3,49.2,29.96,SE,136,1.9,3.5,80,0.00,BKN,,0.00,146.0,WeatherDisplay:10.37,2013-03-27 23:15:00,
2013-03-27 16:20:00,55.5,49.4,29.96,SE,144,0.2,3.5,80,0.00,BKN,,0.00,123.0,WeatherDisplay:10.37,2013-03-27 23:20:00,
2013-03-27 16:25:00,55.5,49.4,29.96,SE,145,0.9,2.3,80,0.00,BKN,,0.00,151.0,WeatherDisplay:10.37,2013-03-27 23:25:00,
2013-03-27 16:30:00,55.1,49.0,29.96,South,178,4.7,9.2,80,0.00,BKN,,0.00,139.0,WeatherDisplay:10.37,2013-03-27 23:30:00,
2013-03-27 16:35:00,55.3,49.2,29.96,ESE,106,0.1,0.0,80,0.00,BKN,,0.00,113.0,WeatherDisplay:10.37,2013-03-27 23:35:00,
2013-03-27 16:40:00,55.1,49.0,29.96,ESE,106,0.0,0.0,80,0.00,BKN,,0.00,130.0,WeatherDisplay:10.37,2013-03-27 23:40:00,
2013-03-27 16:45:00,54.8,48.7,29.96,ESE,113,2.7,4.6,80,0.00,BKN,,0.00,104.0,WeatherDisplay:10.37,2013-03-27 23:45:00,
2013-03-27 16:50:00,54.6,48.9,29.96,SSW,198,1.1,3.5,81,0.00,BKN,,0.00,114.0,WeatherDisplay:10.37,2013-03-27 23:50:00,
2013-03-27 16:55:00,54.3,48.6,29.96,SSW,195,5.4,5.4,81,0.00,BKN,,0.00,113.0,WeatherDisplay:10.37,2013-03-27 23:55:00,
2013-03-27 17:00:00,54.2,48.5,29.96,SSW,196,4.6,6.9,81,0.00,BKN,,0.00,116.0,WeatherDisplay:10.37,2013-03-28 00:00:00,
2013-03-27 17:05:00,54.2,48.5,29.96,SSW,199,2.5,3.5,81,0.00,BKN,,0.00,95.0,WeatherDisplay:10.37,2013-03-28 00:05:00,
2013-03-27 17:10:00,54.0,48.3,29.96,South,185,3.9,3.9,81,0.00,BKN,,0.00,104.0,WeatherDisplay:10.37,2013-03-28 00:10:00,
2013-03-27 17:15:00,53.9,48.5,29.96,SSW,207,2.0,5.8,82,0.00,BKN,,0.00,146.0,WeatherDisplay:10.37,2013-03-28 00:15:00,
2013-03-27 17:20:00,54.0,48.6,29.96,SSW,212,0.9,5.8,82,0.00,BKN,,0.00,121.0,WeatherDisplay:10.37,2013-03-28 00:20:00,
2013-03-27 17:25:00,54.0,48.3,29.96,South,172,4.4,6.9,81,0.00,BKN,,0.00,98.0,WeatherDisplay:10.37,2013-03-28 00:25:00,
2013-03-27 17:30:00,53.8,48.1,29.96,SSW,194,3.8,6.9,81,0.00,BKN,,0.00,118.0,WeatherDisplay:10.37,2013-03-28 00:30:00,
2013-03-27 17:35:00,53.6,47.9,29.96,South,180,5.7,10.4,81,0.00,BKN,,0.00,125.0,WeatherDisplay:10.37,2013-03-28 00:35:00,
2013-03-27 17:40:00,53.7,48.3,29.96,South,183,3.4,6.9,82,0.00,SCT,,0.00,107.0,WeatherDisplay:10.37,2013-03-28 00:40:00,
2013-03-27 17:45:00,53.7,48.0,29.96,South,179,3.6,7.0,81,0.00,BKN,,0.00,97.0,WeatherDisplay:10.37,2013-03-28 00:45:00,
2013-03-27 17:50:00,53.7,48.0,29.96,SSW,210,2.2,3.5,81,0.00,BKN,,0.00,105.0,WeatherDisplay:10.37,2013-03-28 00:50:00,
2013-03-27 17:55:00,53.9,48.2,29.96,SSW,196,1.4,3.5,81,0.00,BKN,,0.00,109.0,WeatherDisplay:10.37,2013-03-28 00:55:00,
2013-03-27 18:00:00,53.9,48.2,29.96,SW,215,1.7,3.5,81,0.00,BKN,,0.00,93.0,WeatherDisplay:10.37,2013-03-28 01:00:00,
2013-03-27 18:05:00,53.9,48.5,29.96,South,184,2.2,3.5,82,0.00,SCT,,0.00,107.0,WeatherDisplay:10.37,2013-03-28 01:05:00,
2013-03-27 18:10:00,53.9,48.5,29.96,South,173,3.6,4.6,82,0.00,BKN,,0.00,83.0,WeatherDisplay:10.37,2013-03-28 01:10:00,
2013-03-27 18:15:00,54.0,48.6,29.96,South,178,3.3,4.6,82,0.00,SCT,,0.00,93.0,WeatherDisplay:10.37,2013-03-28 01:15:00,
2013-03-27 18:20:00,54.0,48.3,29.96,South,178,1.5,3.5,81,0.00,SCT,,0.00,84.0,WeatherDisplay:10.37,2013-03-28 01:20:00,
2013-03-27 18:25:00,54.0,48.3,29.96,SSW,199,7.0,10.4,81,0.00,BKN,,0.00,65.0,WeatherDisplay:10.37,2013-03-28 01:25:00,
2013-03-27 18:30:00,53.9,48.2,29.96,SSW,192,4.7,5.8,81,0.00,SCT,,0.00,63.0,WeatherDisplay:10.37,2013-03-28 01:30:00,
2013-03-27 18:35:00,53.9,48.5,29.96,SSW,192,3.3,4.6,82,0.00,BKN,,0.00,49.0,WeatherDisplay:10.37,2013-03-28 01:35:00,
2013-03-27 18:40:00,53.9,48.5,29.96,SSW,192,3.5,3.5,82,0.00,BKN,,0.00,37.0,WeatherDisplay:10.37,2013-03-28 01:40:00,
2013-03-27 18:45:00,53.8,48.4,29.96,SSW,192,3.3,5.8,82,0.00,SCT,,0.00,40.0,WeatherDisplay:10.37,2013-03-28 01:45:00,
2013-03-27 18:50:00,53.9,48.5,29.96,South,191,4.6,5.8,82,0.00,SCT,,0.00,37.0,WeatherDisplay:10.37,2013-03-28 01:50:00,
2013-03-27 18:55:00,53.7,48.3,29.96,SSW,192,0.1,1.2,82,0.00,SCT,,0.00,30.0,WeatherDisplay:10.37,2013-03-28 01:55:00,
2013-03-27 19:00:00,53.7,48.3,29.96,SSW,192,0.6,2.3,82,0.00,SCT,,0.00,26.0,WeatherDisplay:10.37,2013-03-28 02:00:00,
2013-03-27 19:05:00,53.6,48.2,29.96,SSW,192,0.6,2.3,82,0.00,SCT,,0.00,21.0,WeatherDisplay:10.37,2013-03-28 02:05:00,
2013-03-27 19:10:00,53.5,48.1,29.96,SSW,192,0.3,2.3,82,0.00,SCT,,0.00,16.0,WeatherDisplay:10.37,2013-03-28 02:10:00,
2013-03-27 19:15:00,53.4,48.0,29.96,SSW,192,0.5,2.3,82,0.00,CLR,,0.00,11.0,WeatherDisplay:10.37,2013-03-28 02:15:00,
2013-03-27 19:20:00,53.2,47.8,29.96,SSW,192,0.0,2.3,82,0.00,,,0.00,7.0,WeatherDisplay:10.37,2013-03-28 02:20:00,
2013-03-27 19:25:00,53.1,47.7,29.96,SSW,205,0.5,3.5,82,0.00,,,0.00,0.0,WeatherDisplay:10.37,2013-03-28 02:25:00,
2013-03-27 19:30:00,53.0,47.7,29.97,WSW,245,0.9,3.5,82,0.00,,,0.00,0.0,WeatherDisplay:10.37,2013-03-28 02:30:00,
2013-03-27 19:35:00,52.9,47.6,29.97,SSW,211,0.2,1.2,82,0.00,,,0.00,0.0,WeatherDisplay:10.37,2013-03-28 02:35:00,
2013-03-27 19:40:00,52.8,47.5,29.97,SSW,198,0.1,2.3,82,0.00,,,0.00,0.0,WeatherDisplay:10.37,2013-03-28 02:40:00,
2013-03-27 19:45:00,52.7,47.4,29.96,SSW,194,1.6,2.3,82,0.00,,,0.00,0.0,WeatherDisplay:10.37,2013-03-28 02:45:00,
2013-03-27 19:50:00,52.7,47.4,29.97,SSE,160,1.0,3.5,82,0.00,,,0.00,0.0,WeatherDisplay:10.37,2013-03-28 02:50:00,
2013-03-27 19:55:00,52.7,47.7,29.96,SSE,160,1.1,3.5,83,0.00,,,0.00,0.0,WeatherDisplay:10.37,2013-03-28 02:55:00,
2013-03-27 20:00:00,52.8,47.8,29.96,South,182,5.4,8.1,83,0.00,,,0.00,0.0,WeatherDisplay:10.37,2013-03-28 03:00:00,
2013-03-27 20:05:00,52.8,47.8,29.96,SSW,196,5.8,10.4,83,0.00,,,0.00,0.0,WeatherDisplay:10.37,2013-03-28 03:05:00,
2013-03-27 20:10:00,52.8,47.8,29.96,South,184,6.0,10.4,83,0.00,,,0.00,0.0,WeatherDisplay:10.37,2013-03-28 03:10:00,
2013-03-27 20:15:00,52.7,47.7,29.96,SSW,195,7.6,11.5,83,0.00,,,0.00,0.0,WeatherDisplay:10.37,2013-03-28 03:15:00,
2013-03-27 20:20:00,52.7,47.7,29.96,South,182,6.5,10.4,83,0.00,,,0.00,0.0,WeatherDisplay:10.37,2013-03-28 03:20:00,
2013-03-27 20:25:00,52.7,47.7,29.97,SW,215,5.3,10.4,83,0.00,,,0.00,0.0,WeatherDisplay:10.37,2013-03-28 03:25:00,
2013-03-27 20:30:00,52.7,47.7,29.97,South,190,6.5,11.5,83,0.00,,,0.00,0.0,WeatherDisplay:10.37,2013-03-28 03:30:00,
2013-03-27 20:35:00,52.6,47.6,29.97,South,176,1.7,3.5,83,0.00,,,0.00,0.0,WeatherDisplay:10.37,2013-03-28 03:35:00,
2013-03-27 20:40:00,52.6,47.6,29.97,SSE,163,1.6,3.5,83,0.00,,,0.00,0.0,WeatherDisplay:10.37,2013-03-28 03:40:00,
2013-03-27 20:45:00,52.4,47.4,29.97,West,277,0.1,3.5,83,0.00,,,0.00,0.0,WeatherDisplay:10.37,2013-03-28 03:45:00,
2013-03-27 20:50:00,52.3,47.3,29.97,WNW,292,1.4,3.5,83,0.00,,,0.00,0.0,WeatherDisplay:10.37,2013-03-28 03:50:00,
2013-03-27 20:55:00,52.1,47.4,29.97,WNW,284,0.6,2.3,84,0.00,,,0.00,0.0,WeatherDisplay:10.37,2013-03-28 03:55:00,
2013-03-27 21:00:00,52.1,47.4,29.98,North,9,0.1,0.0,84,0.00,,,0.00,0.0,WeatherDisplay:10.37,2013-03-28 04:00:00,
2013-03-27 21:02:00,52.0,47.3,29.98,North,9,0.7,1.2,84,0.00,,,0.00,0.0,WeatherDisplay:10.37,2013-03-28 04:02:00,
2013-03-27 21:03:00,52.0,47.3,29.98,North,9,0.4,2.3,84,0.00,,,0.00,0.0,WeatherDisplay:10.37,2013-03-28 04:03:00,
2013-03-27 21:05:00,51.9,47.2,29.98,North,9,0.4,1.2,84,0.00,,,0.00,0.0,WeatherDisplay:10.37,2013-03-28 04:05:00,
2013-03-27 21:10:00,51.9,47.2,29.98,West,281,3.4,5.8,84,0.00,,,0.00,0.0,WeatherDisplay:10.37,2013-03-28 04:10:00,
2013-03-27 21:15:00,51.9,47.2,29.98,WNW,293,0.9,2.3,84,0.00,,,0.00,0.0,WeatherDisplay:10.37,2013-03-28 04:15:00,
2013-03-27 21:20:00,51.8,47.1,29.98,North,355,0.9,3.5,84,0.00,,,0.00,0.0,WeatherDisplay:10.37,2013-03-28 04:20:00,
2013-03-27 21:25:00,51.7,47.0,29.98,NW,307,1.4,3.5,84,0.00,,,0.00,0.0,WeatherDisplay:10.37,2013-03-28 04:25:00,
2013-03-27 21:30:00,51.7,47.0,29.98,NW,309,1.1,2.3,84,0.00,,,0.00,0.0,WeatherDisplay:10.37,2013-03-28 04:30:00,
2013-03-27 21:35:00,51.7,47.0,29.98,North,349,0.8,2.3,84,0.00,,,0.00,0.0,WeatherDisplay:10.37,2013-03-28 04:35:00,
2013-03-27 21:40:00,51.5,46.8,29.98,North,5,1.3,2.3,84,0.00,,,0.00,0.0,WeatherDisplay:10.37,2013-03-28 04:40:00,
2013-03-27 21:45:00,51.3,46.6,29.99,North,360,0.1,2.3,84,0.00,,,0.00,0.0,WeatherDisplay:10.37,2013-03-28 04:45:00,
2013-03-27 21:50:00,51.1,46.4,29.99,North,5,0.4,1.2,84,0.00,,,0.00,0.0,WeatherDisplay:10.37,2013-03-28 04:50:00,
2013-03-27 21:55:00,51.1,46.4,29.99,North,360,1.7,3.5,84,0.00,,,0.00,0.0,WeatherDisplay:10.37,2013-03-28 04:55:00,
2013-03-27 22:00:00,51.1,46.4,29.99,North,360,0.3,2.3,84,0.00,,,0.00,0.0,WeatherDisplay:10.37,2013-03-28 05:00:00,
2013-03-27 22:05:00,51.1,46.4,29.99,North,360,0.3,2.3,84,0.00,,,0.00,0.0,WeatherDisplay:10.37,2013-03-28 05:05:00,
2013-03-27 22:10:00,51.1,46.4,29.99,North,360,0.0,1.2,84,0.00,,,0.00,0.0,WeatherDisplay:10.37,2013-03-28 05:10:00,
2013-03-27 22:15:00,51.0,46.6,29.99,North,360,0.0,0.0,85,0.00,,,0.00,0.0,WeatherDisplay:10.37,2013-03-28 05:15:00,
2013-03-27 22:20:00,51.0,46.6,29.99,North,360,0.6,0.0,85,0.00,,,0.00,0.0,WeatherDisplay:10.37,2013-03-28 05:20:00,
2013-03-27 22:25:00,50.8,46.5,29.99,North,360,1.8,3.5,85,0.00,,,0.00,0.0,WeatherDisplay:10.37,2013-03-28 05:25:00,
2013-03-27 22:30:00,50.7,46.4,29.99,North,360,2.5,3.5,85,0.00,,,0.00,0.0,WeatherDisplay:10.37,2013-03-28 05:30:00,
2013-03-27 22:35:00,50.5,46.2,29.99,North,360,1.6,2.3,85,0.00,,,0.00,0.0,WeatherDisplay:10.37,2013-03-28 05:35:00,
2013-03-27 22:40:00,50.5,46.2,29.99,NNW,336,0.0,0.0,85,0.00,,,0.00,0.0,WeatherDisplay:10.37,2013-03-28 05:40:00,
2013-03-27 22:45:00,50.5,46.2,29.99,NNW,336,1.5,3.5,85,0.00,,,0.00,0.0,WeatherDisplay:10.37,2013-03-28 05:45:00,
2013-03-27 22:50:00,50.4,46.1,29.99,NNW,336,0.0,0.0,85,0.00,,,0.00,0.0,WeatherDisplay:10.37,2013-03-28 05:50:00,
2013-03-27 22:55:00,50.4,46.1,29.99,NNW,336,0.0,0.0,85,0.00,,,0.00,0.0,WeatherDisplay:10.37,2013-03-28 05:55:00,
2013-03-27 23:00:00,50.5,46.5,29.99,NNW,336,0.0,0.0,86,0.00,,,0.00,0.0,WeatherDisplay:10.37,2013-03-28 06:00:00,
2013-03-27 23:05:00,50.6,46.6,29.99,NNW,336,0.0,0.0,86,0.00,,,0.00,0.0,WeatherDisplay:10.37,2013-03-28 06:05:00,
2013-03-27 23:10:00,50.6,46.6,30.00,NNW,336,0.0,0.0,86,0.00,,,0.00,0.0,WeatherDisplay:10.37,2013-03-28 06:10:00,
2013-03-27 23:15:00,50.7,46.7,30.00,NNW,336,0.0,0.0,86,0.00,,,0.00,0.0,WeatherDisplay:10.37,2013-03-28 06:15:00,
2013-03-27 23:20:00,50.7,46.4,29.99,NNW,336,0.0,0.0,85,0.00,,,0.00,0.0,WeatherDisplay:10.37,2013-03-28 06:20:00,
2013-03-27 23:25:00,50.6,46.3,29.99,NNW,336,0.4,1.2,85,0.00,,,0.00,0.0,WeatherDisplay:10.37,2013-03-28 06:25:00,
2013-03-27 23:30:00,50.4,46.1,29.99,NNW,336,0.0,0.0,85,0.00,,,0.00,0.0,WeatherDisplay:10.37,2013-03-28 06:30:00,
2013-03-27 23:35:00,50.3,46.0,29.99,NNW,336,0.1,2.3,85,0.00,,,0.00,0.0,WeatherDisplay:10.37,2013-03-28 06:35:00,
2013-03-27 23:40:00,50.3,46.0,30.00,NNW,336,0.0,0.0,85,0.00,,,0.00,0.0,WeatherDisplay:10.37,2013-03-28 06:40:00,
2013-03-27 23:45:00,50.4,46.4,29.99,NNW,336,0.0,0.0,86,0.00,,,0.00,0.0,WeatherDisplay:10.37,2013-03-28 06:45:00,
2013-03-27 23:50:00,50.6,46.6,30.00,NNW,336,0.0,0.0,86,0.00,,,0.00,0.0,WeatherDisplay:10.37,2013-03-28 06:50:00,
2013-03-27 23:55:00,51.1,47.1,29.99,NNW,334,0.1,0.0,86,0.00,,,0.00,0.0,WeatherDisplay:10.37,2013-03-28 06:55:00,